createdAt,value
2017-03-15T05:06:42.156Z,0
2017-03-15T05:07:22.807Z,0
2017-03-15T05:08:03.455Z,0
2017-03-15T05:08:46.059Z,0
2017-03-15T05:09:26.704Z,0
2017-03-15T05:10:08.381Z,0
2017-03-15T05:10:53.544Z,0
2017-03-15T05:11:34.194Z,0
2017-03-15T05:12:15.882Z,0
2017-03-15T05:12:56.521Z,0
2017-03-15T05:13:42.107Z,0
2017-03-15T05:14:22.750Z,0
2017-03-15T05:15:03.389Z,0
2017-03-15T05:15:43.990Z,0
2017-03-15T05:16:24.545Z,0
2017-03-15T05:17:05.148Z,0
2017-03-15T05:17:45.790Z,0
2017-03-15T05:18:26.401Z,0
2017-03-15T05:19:06.963Z,0
2017-03-15T05:19:48.583Z,0
2017-03-15T05:20:29.236Z,0
2017-03-15T05:21:10.822Z,0
2017-03-15T05:21:53.521Z,0
2017-03-15T05:22:34.173Z,0
2017-03-15T05:23:14.825Z,0
2017-03-15T05:23:55.466Z,0
2017-03-15T05:24:36.133Z,0
2017-03-15T05:25:16.779Z,0
2017-03-15T05:25:59.490Z,0
2017-03-15T05:26:40.061Z,0
2017-03-15T05:27:21.711Z,0
2017-03-15T05:28:02.363Z,0
2017-03-15T05:28:43.013Z,0
2017-03-15T05:29:23.665Z,0
2017-03-15T05:30:05.341Z,0
2017-03-15T05:30:46.086Z,0
2017-03-15T05:31:27.676Z,0
2017-03-15T05:32:09.345Z,0
2017-03-15T05:32:50.011Z,0
2017-03-15T05:33:30.659Z,0
2017-03-15T05:34:12.899Z,0
2017-03-15T05:34:53.505Z,0
2017-03-15T05:35:36.102Z,0
2017-03-15T05:36:16.743Z,0
2017-03-15T05:36:57.409Z,0
2017-03-15T05:37:39.081Z,0
2017-03-15T05:38:19.735Z,0
2017-03-15T05:39:06.113Z,0
2017-03-15T05:39:47.800Z,0
2017-03-15T05:40:28.456Z,0
2017-03-15T05:41:09.028Z,0
2017-03-15T05:41:54.340Z,0
2017-03-15T05:42:35.016Z,0
2017-03-15T05:43:15.591Z,0
2017-03-15T05:44:02.988Z,0
2017-03-15T05:44:43.636Z,0
2017-03-15T05:45:24.210Z,0
2017-03-15T05:46:06.892Z,0
2017-03-15T05:46:47.538Z,0
2017-03-15T05:47:28.203Z,0
2017-03-15T05:48:10.031Z,0
2017-03-15T05:48:51.696Z,0
2017-03-15T05:49:37.831Z,0
2017-03-15T05:50:18.480Z,5
2017-03-15T05:51:05.064Z,5
2017-03-15T05:51:45.725Z,5
2017-03-15T05:52:32.105Z,5
2017-03-15T05:53:13.781Z,5
2017-03-15T05:53:54.437Z,5
2017-03-15T05:54:35.096Z,5
2017-03-15T05:55:15.724Z,5
2017-03-15T05:55:56.409Z,5
2017-03-15T05:56:37.050Z,5
2017-03-15T05:57:17.707Z,5
2017-03-15T05:57:58.361Z,5
2017-03-15T05:58:39.020Z,5
2017-03-15T05:59:19.673Z,10
2017-03-15T06:00:00.318Z,10
2017-03-15T06:00:42.001Z,10
2017-03-15T06:01:22.572Z,10
2017-03-15T06:02:03.141Z,10
2017-03-15T06:02:48.499Z,10
2017-03-15T06:03:29.095Z,10
2017-03-15T06:04:10.673Z,10
2017-03-15T06:04:51.241Z,15
2017-03-15T06:05:31.812Z,15
2017-03-15T06:06:12.352Z,15
2017-03-15T06:06:52.938Z,15
2017-03-15T06:07:33.503Z,15
2017-03-15T06:08:14.087Z,20
2017-03-15T06:08:54.644Z,20
2017-03-15T06:09:35.222Z,20
2017-03-15T06:10:15.795Z,20
2017-03-15T06:10:56.360Z,25
2017-03-15T06:11:36.922Z,25
2017-03-15T06:12:17.492Z,25
2017-03-15T06:13:00.072Z,30
2017-03-15T06:13:40.673Z,30
2017-03-15T06:14:21.268Z,30
2017-03-15T06:15:01.825Z,35
2017-03-15T06:15:42.403Z,35
2017-03-15T06:16:22.977Z,35
2017-03-15T06:17:03.551Z,40
2017-03-15T06:17:44.159Z,40
2017-03-15T06:18:24.746Z,40
2017-03-15T06:19:05.308Z,40
2017-03-15T06:19:45.878Z,40
2017-03-15T06:20:26.465Z,40
2017-03-15T06:21:07.049Z,45
2017-03-15T06:21:47.621Z,45
2017-03-15T06:22:28.303Z,45
2017-03-15T06:23:08.963Z,50
2017-03-15T06:23:49.543Z,50
2017-03-15T06:24:30.112Z,50
2017-03-15T06:25:10.674Z,55
2017-03-15T06:25:51.237Z,55
2017-03-15T06:26:31.820Z,55
2017-03-15T06:27:12.389Z,60
2017-03-15T06:27:52.966Z,60
2017-03-15T06:28:33.528Z,60
2017-03-15T06:29:14.084Z,65
2017-03-15T06:29:54.767Z,65
2017-03-15T06:30:35.340Z,65
2017-03-15T06:31:15.898Z,65
2017-03-15T06:31:56.475Z,65
2017-03-15T06:32:37.051Z,65
2017-03-15T06:33:17.622Z,70
2017-03-15T06:33:58.231Z,70
2017-03-15T06:34:38.784Z,70
2017-03-15T06:35:19.352Z,70
2017-03-15T06:35:59.904Z,70
2017-03-15T06:36:40.592Z,70
2017-03-15T06:37:21.183Z,75
2017-03-15T06:38:01.759Z,75
2017-03-15T06:38:42.335Z,75
2017-03-15T06:39:22.925Z,75
2017-03-15T06:40:03.483Z,75
2017-03-15T06:40:44.062Z,70
2017-03-15T06:41:24.644Z,65
2017-03-15T06:42:06.223Z,60
2017-03-15T06:42:46.790Z,60
2017-03-15T06:43:27.368Z,55
2017-03-15T06:44:07.938Z,55
2017-03-15T06:44:48.516Z,55
2017-03-15T06:45:29.128Z,55
2017-03-15T06:46:11.718Z,55
2017-03-15T06:46:52.283Z,55
2017-03-15T06:47:33.856Z,55
2017-03-15T06:48:14.422Z,60
2017-03-15T06:48:55.002Z,60
2017-03-15T06:49:35.620Z,60
2017-03-15T06:50:16.262Z,60
2017-03-15T06:50:56.969Z,65
2017-03-15T06:51:37.544Z,70
2017-03-15T06:52:18.138Z,75
2017-03-15T06:52:58.836Z,75
2017-03-15T06:53:39.414Z,80
2017-03-15T06:54:19.980Z,85
2017-03-15T06:55:00.569Z,85
2017-03-15T06:55:41.140Z,90
2017-03-15T06:56:21.724Z,90
2017-03-15T06:57:02.310Z,90
2017-03-15T06:57:43.872Z,95
2017-03-15T06:58:24.438Z,95
2017-03-15T06:59:05.017Z,95
2017-03-15T06:59:45.584Z,100
2017-03-15T07:00:26.191Z,100
2017-03-15T07:01:07.852Z,100
2017-03-15T07:01:48.426Z,105
2017-03-15T07:02:29.012Z,105
2017-03-15T07:03:09.588Z,105
2017-03-15T07:03:50.282Z,110
2017-03-15T07:04:30.859Z,110
2017-03-15T07:05:11.437Z,115
2017-03-15T07:05:53.009Z,115
2017-03-15T07:06:33.582Z,120
2017-03-15T07:07:14.154Z,120
2017-03-15T07:07:54.738Z,125
2017-03-15T07:08:35.496Z,130
2017-03-15T07:09:16.060Z,130
2017-03-15T07:09:57.793Z,135
2017-03-15T07:10:39.467Z,140
2017-03-15T07:11:20.101Z,145
2017-03-15T07:12:01.834Z,145
2017-03-15T07:12:42.471Z,145
2017-03-15T07:13:23.214Z,150
2017-03-15T07:14:03.840Z,150
2017-03-15T07:14:44.449Z,150
2017-03-15T07:15:25.157Z,150
2017-03-15T07:16:05.724Z,150
2017-03-15T07:16:46.309Z,155
2017-03-15T07:17:26.893Z,155
2017-03-15T07:18:07.599Z,155
2017-03-15T07:18:48.188Z,155
2017-03-15T07:19:28.788Z,155
2017-03-15T07:20:10.383Z,150
2017-03-15T07:20:51.065Z,150
2017-03-15T07:21:36.549Z,150
2017-03-15T07:22:24.020Z,145
2017-03-15T07:23:05.592Z,145
2017-03-15T07:23:46.344Z,140
2017-03-15T07:24:26.852Z,140
2017-03-15T07:25:08.418Z,140
2017-03-15T07:25:53.554Z,145
2017-03-15T07:26:35.167Z,145
2017-03-15T07:27:16.737Z,145
2017-03-15T07:27:57.302Z,145
2017-03-15T07:28:37.878Z,145
2017-03-15T07:29:19.449Z,145
2017-03-15T07:30:06.522Z,150
2017-03-15T07:30:47.096Z,150
2017-03-15T07:31:27.676Z,150
2017-03-15T07:32:08.313Z,155
2017-03-15T07:32:48.876Z,155
2017-03-15T07:33:30.442Z,155
2017-03-15T07:34:11.004Z,150
2017-03-15T07:34:51.564Z,150
2017-03-15T07:35:33.136Z,150
2017-03-15T07:36:13.712Z,150
2017-03-15T07:36:55.286Z,150
2017-03-15T07:37:35.865Z,150
2017-03-15T07:38:16.469Z,150
2017-03-15T07:38:57.040Z,150
2017-03-15T07:39:39.647Z,155
2017-03-15T07:40:20.215Z,155
2017-03-15T07:41:00.782Z,155
2017-03-15T07:41:42.335Z,155
2017-03-15T07:42:22.901Z,160
2017-03-15T07:43:04.480Z,160
2017-03-15T07:43:47.156Z,165
2017-03-15T07:44:29.725Z,165
2017-03-15T07:45:10.300Z,165
2017-03-15T07:45:50.890Z,165
2017-03-15T07:46:31.471Z,165
2017-03-15T07:47:12.041Z,165
2017-03-15T07:47:52.629Z,165
2017-03-15T07:48:33.245Z,165
2017-03-15T07:49:13.795Z,165
2017-03-15T07:49:54.404Z,160
2017-03-15T07:50:34.990Z,160
2017-03-15T07:51:15.544Z,160
2017-03-15T07:51:57.097Z,160
2017-03-15T07:52:37.672Z,160
2017-03-15T07:53:18.263Z,160
2017-03-15T07:53:58.821Z,160
2017-03-15T07:54:39.365Z,165
2017-03-15T07:55:20.941Z,165
2017-03-15T07:56:01.520Z,170
2017-03-15T07:56:42.080Z,170
2017-03-15T07:57:22.671Z,175
2017-03-15T07:58:04.218Z,175
2017-03-15T07:58:44.778Z,180
2017-03-15T07:59:25.344Z,180
2017-03-15T08:00:05.908Z,185
2017-03-15T08:00:46.472Z,185
2017-03-15T08:01:27.034Z,190
2017-03-15T08:02:07.658Z,190
2017-03-15T08:02:48.228Z,190
2017-03-15T08:03:28.789Z,195
2017-03-15T08:04:09.368Z,195
2017-03-15T08:04:50.986Z,195
2017-03-15T08:05:31.559Z,195
2017-03-15T08:06:12.127Z,195
2017-03-15T08:06:52.691Z,195
2017-03-15T08:07:33.269Z,195
2017-03-15T08:08:14.858Z,195
2017-03-15T08:08:55.432Z,195
2017-03-15T08:09:37.086Z,200
2017-03-15T08:10:18.661Z,200
2017-03-15T08:10:59.219Z,200
2017-03-15T08:11:39.814Z,200
2017-03-15T08:12:21.442Z,200
2017-03-15T08:13:02.011Z,200
2017-03-15T08:13:42.582Z,200
2017-03-15T08:14:24.141Z,200
2017-03-15T08:15:04.736Z,200
2017-03-15T08:15:45.294Z,205
2017-03-15T08:16:25.839Z,205
2017-03-15T08:17:06.419Z,205
2017-03-15T08:17:47.004Z,205
2017-03-15T08:18:28.557Z,210
2017-03-15T08:19:09.102Z,210
2017-03-15T08:19:50.679Z,210
2017-03-15T08:20:31.248Z,215
2017-03-15T08:21:13.818Z,215
2017-03-15T08:21:54.367Z,215
2017-03-15T08:22:35.934Z,215
2017-03-15T08:23:16.469Z,215
2017-03-15T08:23:58.080Z,215
2017-03-15T08:24:38.642Z,220
2017-03-15T08:25:19.214Z,220
2017-03-15T08:25:59.773Z,220
2017-03-15T08:26:42.366Z,225
2017-03-15T08:27:22.925Z,225
2017-03-15T08:28:03.510Z,225
2017-03-15T08:28:45.074Z,235
2017-03-15T08:29:25.640Z,235
2017-03-15T08:30:08.229Z,235
2017-03-15T08:30:48.821Z,235
2017-03-15T08:31:29.377Z,235
2017-03-15T08:32:10.952Z,235
2017-03-15T08:32:51.508Z,230
2017-03-15T08:33:32.080Z,235
2017-03-15T08:34:13.638Z,230
2017-03-15T08:34:54.200Z,230
2017-03-15T08:35:34.777Z,230
2017-03-15T08:36:15.350Z,230
2017-03-15T08:36:56.013Z,230
2017-03-15T08:37:36.577Z,235
2017-03-15T08:38:17.145Z,235
2017-03-15T08:38:57.723Z,235
2017-03-15T08:39:38.292Z,240
2017-03-15T08:40:18.859Z,245
2017-03-15T08:41:00.431Z,250
2017-03-15T08:41:41.003Z,250
2017-03-15T08:42:21.583Z,255
2017-03-15T08:43:02.161Z,250
2017-03-15T08:43:42.727Z,255
2017-03-15T08:44:23.302Z,255
2017-03-15T08:45:03.929Z,260
2017-03-15T08:45:46.517Z,255
2017-03-15T08:46:27.071Z,250
2017-03-15T08:47:07.657Z,255
2017-03-15T08:47:48.243Z,255
2017-03-15T08:48:29.809Z,255
2017-03-15T08:49:10.388Z,255
2017-03-15T08:49:50.961Z,255
2017-03-15T08:50:31.548Z,255
2017-03-15T08:51:13.113Z,255
2017-03-15T08:51:53.672Z,255
2017-03-15T08:52:34.269Z,255
2017-03-15T08:53:14.856Z,255
2017-03-15T08:53:57.426Z,250
2017-03-15T08:54:39.016Z,255
2017-03-15T08:55:20.586Z,255
2017-03-15T08:56:01.157Z,250
2017-03-15T08:56:41.726Z,250
2017-03-15T08:57:22.311Z,245
2017-03-15T08:58:02.869Z,245
2017-03-15T08:58:43.450Z,245
2017-03-15T08:59:25.019Z,245
2017-03-15T09:00:06.615Z,240
2017-03-15T09:00:47.192Z,240
2017-03-15T09:01:28.781Z,240
2017-03-15T09:02:09.359Z,240
2017-03-15T09:02:49.947Z,240
2017-03-15T09:03:30.530Z,240
2017-03-15T09:04:11.082Z,245
2017-03-15T09:04:51.635Z,240
2017-03-15T09:05:32.217Z,235
2017-03-15T09:06:13.784Z,240
2017-03-15T09:06:55.358Z,240
2017-03-15T09:07:36.941Z,240
2017-03-15T09:08:17.501Z,240
2017-03-15T09:08:59.099Z,240
2017-03-15T09:09:39.653Z,245
2017-03-15T09:10:20.235Z,245
2017-03-15T09:11:00.823Z,250
2017-03-15T09:11:41.390Z,250
2017-03-15T09:12:21.981Z,255
2017-03-15T09:13:02.561Z,255
2017-03-15T09:13:43.118Z,255
2017-03-15T09:14:25.708Z,260
2017-03-15T09:15:06.275Z,260
2017-03-15T09:15:46.848Z,265
2017-03-15T09:16:27.429Z,265
2017-03-15T09:17:08.002Z,265
2017-03-15T09:17:48.574Z,265
2017-03-15T09:18:29.152Z,270
2017-03-15T09:19:09.779Z,270
2017-03-15T09:19:50.376Z,275
2017-03-15T09:20:30.961Z,275
2017-03-15T09:21:11.532Z,280
2017-03-15T09:21:52.101Z,285
2017-03-15T09:22:32.676Z,290
2017-03-15T09:23:14.256Z,295
2017-03-15T09:23:54.820Z,295
2017-03-15T09:24:35.411Z,300
2017-03-15T09:25:15.982Z,300
2017-03-15T09:25:56.546Z,300
2017-03-15T09:26:37.131Z,300
2017-03-15T09:27:17.716Z,300
2017-03-15T09:27:58.285Z,300
2017-03-15T09:28:38.926Z,300
2017-03-15T09:29:19.607Z,300
2017-03-15T09:30:00.209Z,295
2017-03-15T09:30:40.824Z,290
2017-03-15T09:31:21.451Z,290
2017-03-15T09:32:02.020Z,285
2017-03-15T09:32:42.668Z,285
2017-03-15T09:33:23.321Z,290
2017-03-15T09:34:03.890Z,290
2017-03-15T09:34:44.518Z,285
2017-03-15T09:35:25.179Z,285
2017-03-15T09:36:05.728Z,285
2017-03-15T09:36:46.383Z,285
2017-03-15T09:37:27.025Z,285
2017-03-15T09:38:07.606Z,285
2017-03-15T09:38:48.212Z,290
2017-03-15T09:39:28.790Z,290
2017-03-15T09:40:09.406Z,290
2017-03-15T09:40:49.990Z,290
2017-03-15T09:41:30.684Z,290
2017-03-15T09:42:11.293Z,290
2017-03-15T09:42:51.950Z,290
2017-03-15T09:43:32.599Z,295
2017-03-15T09:44:13.251Z,295
2017-03-15T09:44:53.909Z,300
2017-03-15T09:45:34.557Z,295
2017-03-15T09:46:15.215Z,305
2017-03-15T09:46:55.865Z,300
2017-03-15T09:47:36.510Z,300
2017-03-15T09:48:17.266Z,300
2017-03-15T09:48:57.919Z,300
2017-03-15T09:49:38.581Z,305
2017-03-15T09:50:19.232Z,305
2017-03-15T09:50:59.910Z,310
2017-03-15T09:51:41.601Z,310
2017-03-15T09:52:22.206Z,310
2017-03-15T09:53:02.859Z,315
2017-03-15T09:53:44.535Z,315
2017-03-15T09:54:25.134Z,315
2017-03-15T09:55:05.687Z,315
2017-03-15T09:55:46.319Z,310
2017-03-15T09:56:26.940Z,295
2017-03-15T09:57:07.512Z,315
2017-03-15T09:57:48.160Z,310
2017-03-15T09:58:28.802Z,310
2017-03-15T09:59:09.428Z,310
2017-03-15T09:59:54.924Z,305
2017-03-15T10:00:35.476Z,300
2017-03-15T10:01:16.053Z,300
2017-03-15T10:02:02.406Z,305
2017-03-15T10:02:43.064Z,300
2017-03-15T10:03:23.720Z,295
2017-03-15T10:04:04.381Z,295
2017-03-15T10:04:45.015Z,300
2017-03-15T10:05:25.675Z,290
2017-03-15T10:06:06.320Z,290
2017-03-15T10:06:46.987Z,285
2017-03-15T10:07:27.638Z,285
2017-03-15T10:08:08.299Z,285
2017-03-15T10:08:49.021Z,285
2017-03-15T10:09:29.697Z,280
2017-03-15T10:10:10.361Z,275
2017-03-15T10:10:50.998Z,280
2017-03-15T10:11:31.653Z,275
2017-03-15T10:12:12.311Z,270
2017-03-15T10:12:52.963Z,270
2017-03-15T10:13:33.604Z,265
2017-03-15T10:14:14.263Z,275
2017-03-15T10:14:54.936Z,275
2017-03-15T10:15:35.578Z,275
2017-03-15T10:16:16.232Z,275
2017-03-15T10:16:56.880Z,275
2017-03-15T10:17:37.540Z,275
2017-03-15T10:18:18.192Z,270
2017-03-15T10:18:58.845Z,270
2017-03-15T10:19:39.523Z,265
2017-03-15T10:20:20.162Z,265
2017-03-15T10:21:00.804Z,270
2017-03-15T10:21:41.387Z,265
2017-03-15T10:22:21.974Z,260
2017-03-15T10:23:02.670Z,265
2017-03-15T10:23:43.321Z,265
2017-03-15T10:24:23.904Z,265
2017-03-15T10:25:04.501Z,265
2017-03-15T10:25:45.163Z,260
2017-03-15T10:26:25.808Z,255
2017-03-15T10:27:06.470Z,265
2017-03-15T10:27:47.130Z,270
2017-03-15T10:28:27.793Z,265
2017-03-15T10:29:08.449Z,260
2017-03-15T10:29:49.078Z,260
2017-03-15T10:30:29.737Z,265
2017-03-15T10:31:10.392Z,265
2017-03-15T10:31:51.046Z,270
2017-03-15T10:32:31.709Z,265
2017-03-15T10:33:12.358Z,265
2017-03-15T10:33:53.013Z,260
2017-03-15T10:34:33.641Z,260
2017-03-15T10:35:14.316Z,255
2017-03-15T10:35:54.981Z,255
2017-03-15T10:36:35.649Z,250
2017-03-15T10:37:16.207Z,250
2017-03-15T10:37:56.927Z,250
2017-03-15T10:38:37.567Z,255
2017-03-15T10:39:18.270Z,245
2017-03-15T10:39:58.851Z,245
2017-03-15T10:40:39.530Z,250
2017-03-15T10:41:20.174Z,245
2017-03-15T10:42:00.731Z,250
2017-03-15T10:42:41.382Z,250
2017-03-15T10:43:22.048Z,250
2017-03-15T10:44:02.623Z,245
2017-03-15T10:44:43.358Z,245
2017-03-15T10:45:24.001Z,245
2017-03-15T10:46:04.572Z,245
2017-03-15T10:46:45.237Z,245
2017-03-15T10:47:25.872Z,240
2017-03-15T10:48:06.476Z,235
2017-03-15T10:48:47.159Z,240
2017-03-15T10:49:27.823Z,235
2017-03-15T10:50:08.396Z,235
2017-03-15T10:50:49.145Z,235
2017-03-15T10:51:29.889Z,235
2017-03-15T10:52:10.442Z,235
2017-03-15T10:52:51.092Z,235
2017-03-15T10:53:31.729Z,235
2017-03-15T10:54:12.294Z,235
2017-03-15T10:54:52.945Z,240
2017-03-15T10:55:33.602Z,240
2017-03-15T10:56:14.185Z,235
2017-03-15T10:56:54.895Z,240
2017-03-15T10:57:35.569Z,240
2017-03-15T10:58:16.303Z,245
2017-03-15T10:58:56.983Z,250
2017-03-15T10:59:37.724Z,245
2017-03-15T11:00:18.347Z,250
2017-03-15T11:00:59.023Z,240
2017-03-15T11:01:39.674Z,250
2017-03-15T11:02:20.333Z,245
2017-03-15T11:03:00.956Z,250
2017-03-15T11:03:41.642Z,250
2017-03-15T11:04:22.293Z,255
2017-03-15T11:05:02.928Z,255
2017-03-15T11:05:43.591Z,260
2017-03-15T11:06:24.353Z,255
2017-03-15T11:07:05.022Z,260
2017-03-15T11:07:45.778Z,260
2017-03-15T11:08:26.555Z,260
2017-03-15T11:09:07.310Z,265
2017-03-15T11:09:48.032Z,260
2017-03-15T11:10:28.648Z,270
2017-03-15T11:11:09.318Z,270
2017-03-15T11:11:49.981Z,285
2017-03-15T11:12:30.673Z,295
2017-03-15T11:13:11.249Z,295
2017-03-15T11:13:51.938Z,290
2017-03-15T11:14:32.580Z,300
2017-03-15T11:15:13.284Z,305
2017-03-15T11:15:53.876Z,315
2017-03-15T11:16:34.572Z,320
2017-03-15T11:17:15.309Z,335
2017-03-15T11:17:55.861Z,335
2017-03-15T11:18:36.534Z,335
2017-03-15T11:19:17.273Z,340
2017-03-15T11:19:57.858Z,335
2017-03-15T11:20:38.568Z,335
2017-03-15T11:21:19.236Z,340
2017-03-15T11:21:59.889Z,340
2017-03-15T11:22:40.634Z,350
2017-03-15T11:23:21.289Z,350
2017-03-15T11:24:01.926Z,355
2017-03-15T11:24:42.597Z,350
2017-03-15T11:25:23.342Z,345
2017-03-15T11:26:04.047Z,340
2017-03-15T11:26:44.692Z,335
2017-03-15T11:27:25.249Z,320
2017-03-15T11:28:06.003Z,325
2017-03-15T11:28:46.714Z,315
2017-03-15T11:29:27.405Z,310
2017-03-15T11:30:07.984Z,310
2017-03-15T11:30:48.695Z,300
2017-03-15T11:31:29.322Z,295
2017-03-15T11:32:10.080Z,290
2017-03-15T11:32:50.705Z,285
2017-03-15T11:33:31.365Z,285
2017-03-15T11:34:13.037Z,290
2017-03-15T11:34:53.698Z,290
2017-03-15T11:35:34.348Z,285
2017-03-15T11:36:15.001Z,290
2017-03-15T11:36:55.567Z,290
2017-03-15T11:37:36.188Z,275
2017-03-15T11:38:18.885Z,300
2017-03-15T11:38:59.459Z,290
2017-03-15T11:39:40.107Z,305
2017-03-15T11:40:20.746Z,305
2017-03-15T11:41:01.317Z,295
2017-03-15T11:41:41.965Z,310
2017-03-15T11:42:22.617Z,305
2017-03-15T11:43:03.272Z,300
2017-03-15T11:43:43.937Z,295
2017-03-15T11:44:24.556Z,290
2017-03-15T11:45:06.250Z,290
2017-03-15T11:45:46.887Z,280
2017-03-15T11:46:27.538Z,280
2017-03-15T11:47:08.207Z,280
2017-03-15T11:47:48.784Z,280
2017-03-15T11:48:29.413Z,280
2017-03-15T11:49:10.066Z,280
2017-03-15T11:49:50.641Z,280
2017-03-15T11:50:32.300Z,285
2017-03-15T11:51:12.933Z,285
2017-03-15T11:51:53.493Z,285
2017-03-15T11:52:34.133Z,290
2017-03-15T11:53:14.807Z,295
2017-03-15T11:53:55.460Z,290
2017-03-15T11:54:36.096Z,285
2017-03-15T11:55:16.758Z,285
2017-03-15T11:55:57.419Z,280
2017-03-15T11:56:38.056Z,270
2017-03-15T11:57:23.435Z,260
2017-03-15T11:58:04.073Z,275
2017-03-15T11:58:44.743Z,265
2017-03-15T11:59:25.435Z,255
2017-03-15T12:00:06.049Z,270
2017-03-15T12:00:47.726Z,270
2017-03-15T12:01:28.491Z,265
2017-03-15T12:02:09.122Z,265
2017-03-15T12:02:49.779Z,270
2017-03-15T12:03:30.441Z,275
2017-03-15T12:04:11.076Z,270
2017-03-15T12:04:51.742Z,265
2017-03-15T12:05:32.393Z,265
2017-03-15T12:06:13.037Z,260
2017-03-15T12:06:53.734Z,260
2017-03-15T12:07:34.318Z,265
2017-03-15T12:08:15.015Z,265
2017-03-15T12:08:55.642Z,260
2017-03-15T12:09:36.353Z,220
2017-03-15T12:10:16.924Z,235
2017-03-15T12:10:57.605Z,255
2017-03-15T12:11:38.252Z,260
2017-03-15T12:12:18.954Z,255
2017-03-15T12:12:59.506Z,255
2017-03-15T12:13:40.121Z,240
2017-03-15T12:14:20.813Z,235
2017-03-15T12:15:01.473Z,235
2017-03-15T12:15:42.102Z,240
2017-03-15T12:16:22.732Z,235
2017-03-15T12:17:03.391Z,230
2017-03-15T12:17:43.958Z,240
2017-03-15T12:18:24.524Z,245
2017-03-15T12:19:05.086Z,240
2017-03-15T12:19:45.801Z,230
2017-03-15T12:20:26.374Z,225
2017-03-15T12:21:07.009Z,215
2017-03-15T12:21:47.660Z,225
2017-03-15T12:22:28.351Z,240
2017-03-15T12:23:08.888Z,220
2017-03-15T12:23:49.510Z,210
2017-03-15T12:24:30.159Z,240
2017-03-15T12:25:12.905Z,230
2017-03-15T12:25:53.485Z,255
2017-03-15T12:26:34.154Z,265
2017-03-15T12:27:15.849Z,265
2017-03-15T12:27:56.536Z,275
2017-03-15T12:28:37.130Z,210
2017-03-15T12:29:17.812Z,200
2017-03-15T12:29:58.460Z,220
2017-03-15T12:30:39.148Z,220
2017-03-15T12:31:19.732Z,265
2017-03-15T12:32:00.423Z,265
2017-03-15T12:32:40.987Z,210
2017-03-15T12:33:21.613Z,205
2017-03-15T12:34:02.357Z,215
2017-03-15T12:34:42.915Z,230
2017-03-15T12:35:23.579Z,260
2017-03-15T12:36:04.246Z,215
2017-03-15T12:36:44.842Z,245
2017-03-15T12:37:25.530Z,275
2017-03-15T12:38:06.199Z,270
2017-03-15T12:38:46.851Z,250
2017-03-15T12:39:27.482Z,255
2017-03-15T12:40:08.158Z,255
2017-03-15T12:40:48.811Z,270
2017-03-15T12:41:31.243Z,270
2017-03-15T12:42:11.938Z,265
2017-03-15T12:42:52.613Z,265
2017-03-15T12:43:33.253Z,270
2017-03-15T12:44:13.941Z,295
2017-03-15T12:44:54.665Z,265
2017-03-15T12:45:35.306Z,275
2017-03-15T12:46:17.015Z,260
2017-03-15T12:46:57.687Z,265
2017-03-15T12:47:38.260Z,270
2017-03-15T12:48:18.948Z,270
2017-03-15T12:48:59.658Z,265
2017-03-15T12:49:40.402Z,275
2017-03-15T12:50:20.981Z,275
2017-03-15T12:51:01.670Z,275
2017-03-15T12:51:43.350Z,275
2017-03-15T12:52:24.038Z,275
2017-03-15T12:53:04.628Z,285
2017-03-15T12:53:45.286Z,285
2017-03-15T12:54:25.947Z,285
2017-03-15T12:55:06.638Z,290
2017-03-15T12:55:47.229Z,290
2017-03-15T12:56:27.908Z,290
2017-03-15T12:57:08.669Z,290
2017-03-15T12:57:49.359Z,295
2017-03-15T12:58:29.940Z,290
2017-03-15T12:59:10.619Z,285
2017-03-15T12:59:51.278Z,295
2017-03-15T13:00:32.082Z,300
2017-03-15T13:01:12.669Z,275
2017-03-15T13:01:53.348Z,260
2017-03-15T13:02:33.987Z,240
2017-03-15T13:03:14.640Z,295
2017-03-15T13:03:56.318Z,290
2017-03-15T13:04:36.972Z,285
2017-03-15T13:05:17.581Z,285
2017-03-15T13:05:58.245Z,280
2017-03-15T13:06:38.812Z,270
2017-03-15T13:07:19.488Z,260
2017-03-15T13:08:00.102Z,255
2017-03-15T13:08:40.678Z,250
2017-03-15T13:09:21.316Z,255
2017-03-15T13:10:01.966Z,250
2017-03-15T13:10:42.541Z,215
2017-03-15T13:11:23.190Z,245
2017-03-15T13:12:03.816Z,255
2017-03-15T13:12:44.400Z,255
2017-03-15T13:13:25.015Z,260
2017-03-15T13:14:05.678Z,255
2017-03-15T13:14:46.242Z,250
2017-03-15T13:15:26.870Z,240
2017-03-15T13:16:07.529Z,250
2017-03-15T13:16:48.109Z,245
2017-03-15T13:17:28.745Z,245
2017-03-15T13:18:09.308Z,250
2017-03-15T13:18:49.880Z,250
2017-03-15T13:19:30.517Z,240
2017-03-15T13:20:11.127Z,230
2017-03-15T13:20:51.725Z,235
2017-03-15T13:21:32.310Z,250
2017-03-15T13:22:12.990Z,250
2017-03-15T13:22:53.631Z,245
2017-03-15T13:23:34.341Z,235
2017-03-15T13:24:14.910Z,235
2017-03-15T13:24:55.620Z,245
2017-03-15T13:25:36.257Z,240
2017-03-15T13:26:16.943Z,240
2017-03-15T13:26:57.529Z,240
2017-03-15T13:27:38.222Z,235
2017-03-15T13:28:18.868Z,235
2017-03-15T13:28:59.521Z,235
2017-03-15T13:29:40.174Z,225
2017-03-15T13:30:20.828Z,230
2017-03-15T13:31:01.467Z,230
2017-03-15T13:31:42.129Z,225
2017-03-15T13:32:22.764Z,205
2017-03-15T13:33:03.433Z,205
2017-03-15T13:33:44.081Z,210
2017-03-15T13:34:24.732Z,205
2017-03-15T13:35:05.383Z,195
2017-03-15T13:35:46.031Z,220
2017-03-15T13:36:26.697Z,220
2017-03-15T13:37:07.361Z,230
2017-03-15T13:37:49.031Z,225
2017-03-15T13:38:29.671Z,225
2017-03-15T13:39:10.328Z,225
2017-03-15T13:39:50.915Z,230
2017-03-15T13:40:31.529Z,175
2017-03-15T13:41:12.182Z,190
2017-03-15T13:41:52.875Z,180
2017-03-15T13:42:33.466Z,215
2017-03-15T13:43:14.133Z,225
2017-03-15T13:43:54.793Z,225
2017-03-15T13:44:35.481Z,230
2017-03-15T13:45:16.052Z,225
2017-03-15T13:45:56.645Z,225
2017-03-15T13:46:37.300Z,235
2017-03-15T13:47:17.891Z,230
2017-03-15T13:47:58.464Z,225
2017-03-15T13:48:39.064Z,225
2017-03-15T13:49:19.696Z,225
2017-03-15T13:50:00.296Z,220
2017-03-15T13:50:40.866Z,230
2017-03-15T13:51:21.471Z,235
2017-03-15T13:52:02.112Z,240
2017-03-15T13:52:42.779Z,235
2017-03-15T13:53:23.410Z,240
2017-03-15T13:54:04.065Z,235
2017-03-15T13:54:44.727Z,230
2017-03-15T13:55:25.402Z,230
2017-03-15T13:56:06.018Z,230
2017-03-15T13:56:46.679Z,230
2017-03-15T13:57:29.331Z,250
2017-03-15T13:58:09.881Z,230
2017-03-15T13:58:51.504Z,225
2017-03-15T13:59:34.111Z,220
2017-03-15T14:00:15.726Z,220
2017-03-15T14:00:56.291Z,225
2017-03-15T14:01:37.908Z,225
2017-03-15T14:02:19.509Z,225
2017-03-15T14:03:01.159Z,220
2017-03-15T14:03:42.846Z,225
2017-03-15T14:04:23.487Z,220
2017-03-15T14:05:06.080Z,220
2017-03-15T14:05:48.690Z,220
2017-03-15T14:06:29.344Z,220
2017-03-15T14:07:09.901Z,220
2017-03-15T14:07:50.598Z,210
2017-03-15T14:08:31.211Z,210
2017-03-15T14:09:13.907Z,220
2017-03-15T14:09:55.507Z,220
2017-03-15T14:10:36.066Z,220
2017-03-15T14:11:16.677Z,220
2017-03-15T14:11:58.355Z,220
2017-03-15T14:12:39.005Z,220
2017-03-15T14:13:20.668Z,220
2017-03-15T14:14:03.285Z,220
2017-03-15T14:14:44.296Z,220
2017-03-15T14:15:24.896Z,220
2017-03-15T14:16:05.548Z,215
2017-03-15T14:16:50.715Z,205
2017-03-15T14:17:31.358Z,220
2017-03-15T14:18:12.013Z,225
2017-03-15T14:18:54.617Z,225
2017-03-15T14:19:35.264Z,225
2017-03-15T14:20:15.916Z,220
2017-03-15T14:21:01.228Z,220
2017-03-15T14:21:43.473Z,220
2017-03-15T14:22:25.152Z,225
2017-03-15T14:23:05.788Z,215
2017-03-15T14:23:46.450Z,215
2017-03-15T14:24:27.111Z,215
2017-03-15T14:25:08.780Z,215
2017-03-15T14:25:50.470Z,215
2017-03-15T14:26:31.114Z,210
2017-03-15T14:27:11.771Z,195
2017-03-15T14:27:53.634Z,180
2017-03-15T14:28:34.284Z,170
2017-03-15T14:29:15.965Z,175
2017-03-15T14:29:56.626Z,185
2017-03-15T14:30:37.332Z,185
2017-03-15T14:31:17.908Z,200
2017-03-15T14:31:58.522Z,200
2017-03-15T14:32:39.105Z,190
2017-03-15T14:33:19.669Z,190
2017-03-15T14:34:01.260Z,185
2017-03-15T14:34:41.845Z,180
2017-03-15T14:35:22.422Z,170